Latest Weather Observations for Gooseberry Hill

IDW60901

Issued at 4:01 pm WST Monday 25 September 2017 (issued every 10 minutes, with the page automatically refreshed every 10 minutes)

About weather observations | Map of Perth area stations | Latest observations for Perth area | Other Formats
Station Details ID: 009204 Name: GOOSEBERRY HILL Lat: -31.94 Lon: 116.05 Height: 220.0 m
Data from the previous 72 hours. | See also: Recent months at Gooseberry Hill
Date/Time
WST
Temp
°C
App
Temp
°C
Dew
Point
°C
Rel
Hum
%
Delta-T
°C
Wind Press
QNH
hPa
Press
MSL
hPa
Rain since
9am
mm
Dir  Spd
km/h
Gust
km/h
Spd
kts
Gust
kts
25/04:00pm 15.0 13.3 9.8 71 2.7 SW 9 17 5 9 - - -
25/03:30pm 12.4 11.3 10.5 88 1.0 WSW 7 11 4 6 - - -
25/03:00pm 11.3 8.9 10.0 92 0.7 SW 13 19 7 10 - - -
25/02:30pm 13.2 9.2 8.9 75 2.2 SW 20 33 11 18 - - -
25/02:00pm 13.9 12.7 9.7 76 2.2 WSW 6 9 3 5 - - -
25/01:30pm 12.5 11.0 8.4 76 2.1 SSW 6 9 3 5 - - -
25/01:00pm 12.9 12.4 10.6 86 1.2 SE 4 9 2 5 - - -
25/12:30pm 9.8 7.9 9.2 96 0.3 ESE 9 13 5 7 - - -
25/12:00pm 9.0 5.9 8.7 98 0.1 E 15 17 8 9 - - -
25/11:30am 8.7 5.5 8.3 97 0.2 ENE 15 19 8 10 - - -
25/11:00am 9.8 6.7 9.0 95 0.4 NE 15 20 8 11 - - -
25/10:30am 10.1 6.7 7.7 85 1.2 E 15 19 8 10 - - -
25/10:00am 10.2 7.3 8.3 88 0.9 E 13 19 7 10 - - -
25/09:30am 9.8 6.5 7.9 88 0.9 E 15 20 8 11 - - -
25/09:00am 9.6 6.5 8.7 94 0.4 E 15 20 8 11 - - -
25/08:30am 9.8 7.9 9.2 96 0.3 ESE 9 20 5 11 - - -
25/08:00am 9.1 6.3 8.5 96 0.3 E 13 20 7 11 - - -
25/07:30am 9.1 6.2 8.3 95 0.4 E 13 19 7 10 - - -
25/07:00am 8.5 5.1 7.7 95 0.4 ENE 15 19 8 10 - - -
25/06:30am 8.3 5.4 8.0 98 0.1 NE 13 17 7 9 - - -
25/06:00am 8.3 5.4 8.0 98 0.1 NNE 13 20 7 11 - - -
25/05:30am 8.2 5.2 7.9 98 0.1 NE 13 20 7 11 - - -
25/05:00am 8.2 4.9 7.9 98 0.1 NE 15 24 8 13 - - -
25/04:30am 8.3 4.6 8.0 98 0.1 ENE 17 22 9 12 - - -
25/04:00am 8.3 5.4 8.0 98 0.1 NE 13 20 7 11 - - -
25/03:30am 8.3 5.0 7.9 97 0.2 NE 15 24 8 13 - - -
25/03:00am 8.4 5.0 7.5 94 0.4 NE 15 24 8 13 - - -
25/02:30am 8.3 5.1 6.8 90 0.7 NE 13 20 7 11 - - -
25/02:00am 8.3 4.8 7.1 92 0.6 NNE 15 20 8 11 - - -
25/01:30am 8.5 5.5 7.6 94 0.4 NE 13 17 7 9 - - -
25/01:00am 8.7 5.0 8.1 96 0.3 NNE 17 24 9 13 - - -
25/12:30am 8.8 6.3 8.2 96 0.3 NE 11 19 6 10 - - -
25/12:00am 8.8 5.5 7.9 94 0.4 NE 15 19 8 10 - - -
 
Date/Time
WST
Temp
°C
App
Temp
°C
Dew
Point
°C
Rel
Hum
%
Delta-T
°C
Wind Press
QNH
hPa
Press
MSL
hPa
Rain since
9am
mm
Dir  Spd
km/h
Gust
km/h
Spd
kts
Gust
kts
24/11:30pm 8.7 5.7 7.9 95 0.4 NE 13 17 7 9 - - -
24/11:00pm 9.0 6.1 8.2 95 0.4 NE 13 19 7 10 - - -
24/10:30pm 8.9 6.0 8.1 95 0.4 NE 13 17 7 9 - - -
24/10:00pm 8.6 5.3 8.0 96 0.3 ENE 15 17 8 9 - - -
24/09:30pm 8.7 7.4 7.6 93 0.5 WSW 4 6 2 3 - - -
24/09:00pm 9.3 7.6 8.5 95 0.4 SSW 7 20 4 11 - - -
24/08:30pm 9.7 8.2 8.5 92 0.6 E 6 9 3 5 - - -
24/08:00pm 9.5 9.1 8.4 93 0.5 CALM 0 0 0 0 - - -
24/07:30pm 9.8 8.2 8.9 94 0.4 W 7 13 4 7 - - -
24/07:00pm 10.9 9.0 9.2 89 0.9 NW 9 22 5 12 - - -
24/06:30pm 11.3 8.9 8.5 83 1.4 W 11 15 6 8 - - -
24/06:00pm 11.3 8.8 8.0 80 1.6 W 11 15 6 8 - - -
24/05:30pm 11.9 9.1 8.4 79 1.7 WSW 13 20 7 11 - - -
24/05:00pm 12.1 10.1 10.2 88 1.0 SW 11 17 6 9 - - -
24/04:30pm 12.4 9.4 10.6 89 0.9 WSW 17 26 9 14 - - -
24/04:00pm 12.3 9.3 11.8 97 0.3 W 19 32 10 17 - - -
24/03:30pm 12.4 9.7 11.6 95 0.4 N 17 26 9 14 - - -
24/03:00pm 12.1 10.1 11.6 97 0.3 NNE 13 19 7 10 - - -
24/02:30pm 11.4 8.6 10.1 92 0.7 NNW 15 33 8 18 - - -
24/02:00pm 12.6 12.1 12.0 96 0.3 NW 6 13 3 7 - - -
24/01:30pm 12.3 11.5 11.7 96 0.3 NNE 7 9 4 5 - - -
24/01:00pm 11.8 10.6 10.2 90 0.8 N 7 9 4 5 - - -
24/12:30pm 11.8 10.5 10.0 89 0.9 N 7 11 4 6 - - -
24/12:00pm 14.0 11.6 8.6 70 2.7 N 11 20 6 11 - - -
24/11:30am 15.1 12.7 9.9 71 2.7 NNE 13 20 7 11 - - -
24/11:00am 14.5 11.4 8.9 69 2.9 NNE 15 24 8 13 - - -
24/10:30am 14.3 12.6 9.7 74 2.4 NNE 9 17 5 9 - - -
24/10:00am 14.0 12.5 9.2 73 2.5 N 7 15 4 8 - - -
24/09:30am 13.4 12.7 11.3 87 1.1 NE 6 11 3 6 - - -
24/09:00am 12.1 11.0 10.7 91 0.7 NE 7 13 4 7 - - -
24/08:30am 11.4 10.4 10.9 97 0.3 NE 7 11 4 6 - - -
24/08:00am 10.2 9.2 10.2 100 0.0 E 6 9 3 5 - - -
24/07:30am 9.9 7.8 9.9 100 0.0 ENE 11 13 6 7 - - -
24/07:00am 9.6 8.2 9.6 100 0.0 ENE 7 11 4 6 - - -
24/06:30am 9.4 8.0 9.4 100 0.0 E 7 17 4 9 - - -
24/06:00am 9.3 6.3 9.3 100 0.0 ENE 15 20 8 11 - - -
24/05:30am 9.3 7.1 9.3 100 0.0 ENE 11 17 6 9 - - -
24/05:00am 9.1 5.7 9.1 100 0.0 ENE 17 19 9 10 - - -
24/04:30am 9.1 6.4 9.1 100 0.0 E 13 17 7 9 - - -
24/04:00am 9.2 6.9 9.1 99 0.0 ENE 11 19 6 10 - - -
24/03:30am 9.0 5.0 8.9 99 0.0 E 20 24 11 13 - - -
24/03:00am 9.1 5.1 9.0 99 0.0 E 20 28 11 15 - - -
24/02:30am 9.1 6.4 8.8 98 0.1 ENE 13 17 7 9 - - -
24/02:00am 9.1 6.4 8.8 98 0.1 E 13 17 7 9 - - -
24/01:30am 9.2 6.4 8.6 96 0.3 E 13 19 7 10 - - -
24/01:00am 9.5 7.2 8.9 96 0.3 ESE 11 17 6 9 - - -
24/12:30am 9.9 8.5 9.0 94 0.4 W 6 7 3 4 - - -
24/12:00am 10.3 8.4 7.7 84 1.3 SE 7 9 4 5 - - -
 
Date/Time
WST
Temp
°C
App
Temp
°C
Dew
Point
°C
Rel
Hum
%
Delta-T
°C
Wind Press
QNH
hPa
Press
MSL
hPa
Rain since
9am
mm
Dir  Spd
km/h
Gust
km/h
Spd
kts
Gust
kts
23/11:30pm 10.4 8.1 7.6 83 1.4 E 9 13 5 7 - - -
23/11:00pm 10.4 8.4 7.3 81 1.5 E 7 11 4 6 - - -
23/10:30pm 10.9 9.0 7.6 80 1.6 NE 7 11 4 6 - - -
23/10:00pm 11.4 9.4 6.1 70 2.5 ENE 6 7 3 4 - - -
23/09:30pm 11.4 9.7 6.1 70 2.5 E 4 6 2 3 - - -
23/09:00pm 11.3 9.2 5.8 69 2.6 E 6 7 3 4 - - -
23/08:30pm 11.5 10.1 5.6 67 2.8 SSW 2 6 1 3 - - -
23/08:00pm 11.8 9.8 6.3 69 2.6 SSW 6 7 3 4 - - -
23/07:30pm 12.0 8.5 5.6 65 3.0 SW 13 20 7 11 - - -
23/07:00pm 11.9 9.1 5.3 64 3.1 SW 9 15 5 8 - - -
23/06:30pm 12.1 9.8 5.7 65 3.0 SW 7 13 4 7 - - -
23/06:00pm 12.4 8.5 5.3 62 3.3 SW 15 22 8 12 - - -
23/05:30pm 12.7 8.4 5.1 60 3.6 SW 17 22 9 12 - - -
23/05:00pm 13.0 8.6 6.4 64 3.2 WSW 19 28 10 15 - - -
23/04:30pm 13.4 8.8 6.5 63 3.3 SW 20 28 11 15 - - -
23/04:00pm 14.2 9.7 6.8 61 3.6 WSW 20 30 11 16 - - -
23/03:30pm 14.1 9.1 6.5 60 3.7 SW 22 32 12 17 - - -
23/03:00pm 14.1 9.7 7.2 63 3.4 WSW 20 32 11 17 - - -
23/02:30pm 14.6 10.2 7.4 62 3.6 SW 20 32 11 17 - - -
23/02:00pm 13.1 7.7 7.8 70 2.6 SW 26 37 14 20 - - -
23/01:30pm 13.0 9.6 9.1 77 2.0 SW 17 24 9 13 - - -
23/01:00pm 12.9 6.0 9.0 77 2.0 WSW 35 52 19 28 - - -
23/12:53pm 13.7 7.8 7.7 67 3.0 WSW 28 52 15 28 - - -
23/12:30pm 14.6 9.4 7.2 61 3.7 SW 24 39 13 21 - - -
23/12:00pm 13.5 8.2 6.8 64 3.3 WSW 24 39 13 21 - - -
23/11:30am 12.8 7.7 7.5 70 2.6 SW 24 39 13 21 - - -
23/11:00am 12.7 7.4 8.6 76 2.1 SW 26 37 14 20 - - -
23/10:30am 11.8 7.5 9.2 84 1.3 WSW 22 37 12 20 - - -
23/10:00am 11.9 7.9 8.9 82 1.5 SW 20 32 11 17 - - -
23/09:30am 12.1 7.5 9.8 86 1.2 WSW 24 35 13 19 - - -
23/09:00am 11.4 8.8 10.8 96 0.3 WSW 15 22 8 12 - - -
23/08:30am 10.6 7.1 10.3 98 0.2 SW 19 26 10 14 - - -
23/08:00am 10.0 4.5 9.2 95 0.4 SW 28 43 15 23 - - -
23/07:54am 10.3 5.0 9.8 97 0.3 SW 28 43 15 23 - - -
23/07:30am 10.4 7.6 10.1 98 0.2 SW 15 20 8 11 - - -
23/07:00am 10.0 6.4 10.0 100 0.0 SW 19 24 10 13 - - -
23/06:30am 9.8 6.6 9.8 100 0.0 WSW 17 32 9 17 - - -
23/06:00am 9.6 6.3 9.5 99 0.1 SW 17 24 9 13 - - -
23/05:30am 9.8 5.8 9.0 95 0.4 SW 20 32 11 17 - - -
23/05:09am 10.7 4.8 7.6 81 1.5 WSW 28 52 15 28 - - -
23/05:00am 10.8 6.1 6.2 73 2.2 WSW 20 28 11 15 - - -
23/04:30am 10.8 5.4 6.2 73 2.2 SW 24 35 13 19 - - -
23/04:00am 10.9 6.0 5.2 68 2.6 SW 20 28 11 15 - - -
23/03:30am 11.1 5.5 5.6 69 2.6 SW 24 33 13 18 - - -
23/03:00am 11.2 5.6 5.3 67 2.7 SW 24 32 13 17 - - -
23/02:30am 11.5 5.6 6.0 69 2.6 SW 26 37 14 20 - - -
23/02:00am 11.5 5.5 5.4 66 2.8 SW 26 43 14 23 - - -
23/01:30am 11.7 5.6 6.8 72 2.4 SW 28 39 15 21 - - -
23/01:00am 11.6 6.1 7.5 76 2.0 WSW 26 37 14 20 - - -
23/12:30am 11.3 6.5 8.9 85 1.2 SW 24 33 13 18 - - -
23/12:00am 11.1 6.5 8.1 82 1.5 WSW 22 30 12 16 - - -
 
Date/Time
WST
Temp
°C
App
Temp
°C
Dew
Point
°C
Rel
Hum
%
Delta-T
°C
Wind Press
QNH
hPa
Press
MSL
hPa
Rain since
9am
mm
Dir  Spd
km/h
Gust
km/h
Spd
kts
Gust
kts
22/11:30pm 11.3 6.3 8.0 80 1.6 WSW 24 33 13 18 - - -
22/11:00pm 11.4 7.7 9.5 88 1.0 WSW 19 24 10 13 - - -
22/10:30pm 11.1 8.0 10.3 95 0.4 WSW 17 24 9 13 - - -
22/10:00pm 11.3 9.1 10.8 97 0.3 WSW 13 19 7 10 - - -
22/09:30pm 11.7 6.9 10.3 91 0.7 WSW 26 39 14 21 - - -
22/09:00pm 12.9 8.8 8.0 72 2.4 SW 19 26 10 14 - - -
22/08:30pm 12.8 8.3 8.5 75 2.2 SW 22 30 12 16 - - -
22/08:00pm 12.4 6.9 9.2 81 1.6 WSW 28 37 15 20 - - -
22/07:30pm 12.5 8.8 10.0 85 1.3 WSW 20 28 11 15 - - -
22/07:14pm 12.6 7.3 10.0 84 1.3 WSW 28 48 15 26 - - -
22/07:00pm 13.8 7.2 8.4 70 2.7 WSW 33 48 18 26 - - -
22/06:35pm 13.7 7.0 8.1 69 2.8 WSW 33 52 18 28 - - -
22/06:30pm 13.8 6.3 7.8 67 3.0 WSW 37 54 20 29 - - -
22/06:03pm 13.8 6.6 7.8 67 3.0 WSW 35 56 19 30 - - -
22/06:00pm 13.8 6.7 8.0 68 2.9 WSW 35 50 19 27 - - -
22/05:32pm 14.0 5.8 8.0 67 3.0 WSW 41 65 22 35 - - -
22/05:30pm 14.0 6.2 8.2 68 2.9 WSW 39 56 21 30 - - -
22/05:00pm 14.6 5.5 8.3 66 3.2 WSW 46 67 25 36 - - -
22/04:30pm 15.2 4.1 8.2 63 3.6 WSW 56 78 30 42 - - -

Latest Capital City Observations: Canberra | Sydney | Melbourne | Brisbane | Adelaide | Perth | Hobart | Darwin

Other Formats:

Comma delimited format used in spreadsheet applications
http://www.bom.gov.au/fwo/IDW60901/IDW60901.94615.axf

JavaScript Object Notation format (JSON) in row-major order
http://www.bom.gov.au/fwo/IDW60901/IDW60901.94615.json